sensor_id;sensor_type;location;lat;lon;timestamp;P1;durP1;ratioP1;P2;durP2;ratioP2
19043;SDS011;9654;52.302;8.120;2023-02-21T03:07:43;64.90;;;31.33;;
19043;SDS011;9654;52.302;8.120;2023-02-21T03:10:20;62.07;;;29.67;;
19043;SDS011;9654;52.302;8.120;2023-02-21T03:12:51;63.07;;;30.13;;
19043;SDS011;9654;52.302;8.120;2023-02-21T03:15:27;65.20;;;30.07;;
19043;SDS011;9654;52.302;8.120;2023-02-21T03:18:02;59.10;;;29.60;;
19043;SDS011;9654;52.302;8.120;2023-02-21T03:20:32;65.23;;;31.30;;
19043;SDS011;9654;52.302;8.120;2023-02-21T03:23:02;72.70;;;31.97;;
19043;SDS011;9654;52.302;8.120;2023-02-21T03:25:30;63.77;;;29.87;;
19043;SDS011;9654;52.302;8.120;2023-02-21T03:27:59;64.13;;;30.57;;
19043;SDS011;9654;52.302;8.120;2023-02-21T03:30:27;62.83;;;31.60;;
19043;SDS011;9654;52.302;8.120;2023-02-21T03:32:54;64.23;;;30.07;;
19043;SDS011;9654;52.302;8.120;2023-02-21T03:35:22;59.77;;;29.37;;
19043;SDS011;9654;52.302;8.120;2023-02-21T03:37:53;65.97;;;30.30;;
19043;SDS011;9654;52.302;8.120;2023-02-21T03:40:22;67.53;;;31.77;;
19043;SDS011;9654;52.302;8.120;2023-02-21T03:42:52;70.17;;;30.23;;
19043;SDS011;9654;52.302;8.120;2023-02-21T03:45:19;61.07;;;29.17;;
19043;SDS011;9654;52.302;8.120;2023-02-21T03:47:47;66.50;;;31.30;;
19043;SDS011;9654;52.302;8.120;2023-02-21T03:50:14;61.57;;;29.97;;
19043;SDS011;9654;52.302;8.120;2023-02-21T03:52:41;72.23;;;32.80;;
19043;SDS011;9654;52.302;8.120;2023-02-21T03:55:08;66.97;;;29.17;;
19043;SDS011;9654;52.302;8.120;2023-02-21T03:57:36;63.87;;;30.30;;
19043;SDS011;9654;52.302;8.120;2023-02-21T04:00:03;67.07;;;30.50;;
19043;SDS011;9654;52.302;8.120;2023-02-21T04:02:30;66.20;;;29.97;;
19043;SDS011;9654;52.302;8.120;2023-02-21T04:04:57;74.83;;;32.63;;
19043;SDS011;9654;52.302;8.120;2023-02-21T04:07:24;62.40;;;30.03;;
19043;SDS011;9654;52.302;8.120;2023-02-21T04:09:51;72.93;;;31.43;;
19043;SDS011;9654;52.302;8.120;2023-02-21T04:12:18;64.97;;;29.37;;
19043;SDS011;9654;52.302;8.120;2023-02-21T04:14:46;70.23;;;30.97;;
19043;SDS011;9654;52.302;8.120;2023-02-21T04:17:13;71.37;;;32.97;;
19043;SDS011;9654;52.302;8.120;2023-02-21T04:19:41;71.00;;;29.87;;
19043;SDS011;9654;52.302;8.120;2023-02-21T04:22:08;70.50;;;32.37;;
19043;SDS011;9654;52.302;8.120;2023-02-21T04:24:34;72.33;;;33.07;;
19043;SDS011;9654;52.302;8.120;2023-02-21T04:27:01;71.33;;;32.60;;
19043;SDS011;9654;52.302;8.120;2023-02-21T04:29:28;74.57;;;33.27;;
19043;SDS011;9654;52.302;8.120;2023-02-21T04:31:56;71.47;;;30.97;;
19043;SDS011;9654;52.302;8.120;2023-02-21T04:34:23;68.50;;;30.53;;
19043;SDS011;9654;52.302;8.120;2023-02-21T04:36:50;68.27;;;31.10;;
19043;SDS011;9654;52.302;8.120;2023-02-21T04:39:16;68.33;;;32.60;;
19043;SDS011;9654;52.302;8.120;2023-02-21T04:41:43;72.37;;;31.57;;
19043;SDS011;9654;52.302;8.120;2023-02-21T04:44:10;72.83;;;32.73;;
19043;SDS011;9654;52.302;8.120;2023-02-21T04:46:38;71.60;;;32.17;;
19043;SDS011;9654;52.302;8.120;2023-02-21T04:49:06;67.90;;;30.50;;
19043;SDS011;9654;52.302;8.120;2023-02-21T04:51:33;72.10;;;31.83;;
19043;SDS011;9654;52.302;8.120;2023-02-21T04:53:59;81.23;;;33.10;;
19043;SDS011;9654;52.302;8.120;2023-02-21T04:56:27;71.17;;;31.83;;
19043;SDS011;9654;52.302;8.120;2023-02-21T04:58:53;71.60;;;32.67;;
19043;SDS011;9654;52.302;8.120;2023-02-21T05:01:21;68.00;;;30.43;;
19043;SDS011;9654;52.302;8.120;2023-02-21T05:03:51;71.23;;;33.17;;
19043;SDS011;9654;52.302;8.120;2023-02-21T05:06:20;69.27;;;31.40;;
19043;SDS011;9654;52.302;8.120;2023-02-21T05:08:48;79.50;;;34.60;;
19043;SDS011;9654;52.302;8.120;2023-02-21T05:11:15;74.30;;;31.67;;
19043;SDS011;9654;52.302;8.120;2023-02-21T05:13:43;74.37;;;32.03;;
19043;SDS011;9654;52.302;8.120;2023-02-21T05:16:10;77.33;;;32.87;;
19043;SDS011;9654;52.302;8.120;2023-02-21T05:18:37;75.20;;;31.97;;
19043;SDS011;9654;52.302;8.120;2023-02-21T05:21:05;71.00;;;31.10;;
19043;SDS011;9654;52.302;8.120;2023-02-21T05:23:33;80.20;;;33.07;;
19043;SDS011;9654;52.302;8.120;2023-02-21T05:26:02;76.97;;;32.80;;
19043;SDS011;9654;52.302;8.120;2023-02-21T05:28:31;71.03;;;32.47;;
19043;SDS011;9654;52.302;8.120;2023-02-21T05:30:58;74.57;;;32.17;;
19043;SDS011;9654;52.302;8.120;2023-02-21T05:33:24;80.40;;;35.20;;
19043;SDS011;9654;52.302;8.120;2023-02-21T05:35:52;80.73;;;32.57;;
19043;SDS011;9654;52.302;8.120;2023-02-21T05:38:19;68.27;;;32.03;;
19043;SDS011;9654;52.302;8.120;2023-02-21T05:40:48;76.07;;;33.47;;
19043;SDS011;9654;52.302;8.120;2023-02-21T05:43:15;72.00;;;32.47;;
19043;SDS011;9654;52.302;8.120;2023-02-21T05:45:42;71.07;;;30.40;;
19043;SDS011;9654;52.302;8.120;2023-02-21T05:48:09;70.30;;;31.10;;
19043;SDS011;9654;52.302;8.120;2023-02-21T05:50:36;82.27;;;32.67;;
19043;SDS011;9654;52.302;8.120;2023-02-21T05:53:03;74.17;;;31.60;;
19043;SDS011;9654;52.302;8.120;2023-02-21T05:55:30;77.37;;;31.47;;
19043;SDS011;9654;52.302;8.120;2023-02-21T05:57:59;83.37;;;33.50;;
19043;SDS011;9654;52.302;8.120;2023-02-21T06:00:26;80.70;;;32.90;;
19043;SDS011;9654;52.302;8.120;2023-02-21T06:02:55;72.33;;;31.23;;
19043;SDS011;9654;52.302;8.120;2023-02-21T06:05:22;76.53;;;31.63;;
19043;SDS011;9654;52.302;8.120;2023-02-21T06:07:49;88.37;;;33.47;;
19043;SDS011;9654;52.302;8.120;2023-02-21T06:10:17;80.97;;;31.80;;
19043;SDS011;9654;52.302;8.120;2023-02-21T06:12:44;80.40;;;32.83;;
19043;SDS011;9654;52.302;8.120;2023-02-21T06:15:13;88.40;;;35.53;;
19043;SDS011;9654;52.302;8.120;2023-02-21T06:17:40;85.27;;;33.13;;
19043;SDS011;9654;52.302;8.120;2023-02-21T06:20:08;82.07;;;32.20;;
19043;SDS011;9654;52.302;8.120;2023-02-21T06:22:38;86.43;;;33.93;;
19043;SDS011;9654;52.302;8.120;2023-02-21T06:25:05;88.73;;;33.83;;
19043;SDS011;9654;52.302;8.120;2023-02-21T06:27:33;92.63;;;37.57;;
19043;SDS011;9654;52.302;8.120;2023-02-21T06:30:00;101.50;;;36.87;;
19043;SDS011;9654;52.302;8.120;2023-02-21T06:32:28;96.83;;;38.07;;
19043;SDS011;9654;52.302;8.120;2023-02-21T06:34:55;101.33;;;38.07;;
19043;SDS011;9654;52.302;8.120;2023-02-21T06:37:22;107.33;;;37.33;;
19043;SDS011;9654;52.302;8.120;2023-02-21T06:39:48;108.30;;;40.37;;
19043;SDS011;9654;52.302;8.120;2023-02-21T06:42:15;109.30;;;39.93;;
19043;SDS011;9654;52.302;8.120;2023-02-21T06:44:43;106.33;;;37.77;;
19043;SDS011;9654;52.302;8.120;2023-02-21T06:47:10;105.50;;;38.97;;
19043;SDS011;9654;52.302;8.120;2023-02-21T06:49:38;105.20;;;40.47;;
19043;SDS011;9654;52.302;8.120;2023-02-21T06:52:05;114.10;;;38.33;;
19043;SDS011;9654;52.302;8.120;2023-02-21T06:54:32;110.00;;;39.70;;
19043;SDS011;9654;52.302;8.120;2023-02-21T06:56:59;110.97;;;39.47;;
19043;SDS011;9654;52.302;8.120;2023-02-21T06:59:26;101.77;;;38.50;;
19043;SDS011;9654;52.302;8.120;2023-02-21T07:01:53;104.67;;;39.90;;
19043;SDS011;9654;52.302;8.120;2023-02-21T07:04:20;101.33;;;36.63;;
19043;SDS011;9654;52.302;8.120;2023-02-21T07:06:48;108.87;;;38.73;;
19043;SDS011;9654;52.302;8.120;2023-02-21T07:09:15;103.87;;;37.60;;
19043;SDS011;9654;52.302;8.120;2023-02-21T07:11:42;102.13;;;38.13;;
19043;SDS011;9654;52.302;8.120;2023-02-21T07:14:11;101.50;;;36.63;;
19043;SDS011;9654;52.302;8.120;2023-02-21T07:16:37;106.10;;;37.93;;
19043;SDS011;9654;52.302;8.120;2023-02-21T07:19:04;96.03;;;34.33;;
19043;SDS011;9654;52.302;8.120;2023-02-21T07:21:31;91.93;;;35.17;;
19043;SDS011;9654;52.302;8.120;2023-02-21T07:23:59;97.73;;;35.40;;
19043;SDS011;9654;52.302;8.120;2023-02-21T07:26:26;87.77;;;34.43;;
19043;SDS011;9654;52.302;8.120;2023-02-21T07:28:53;93.50;;;35.50;;
19043;SDS011;9654;52.302;8.120;2023-02-21T07:31:19;87.97;;;33.23;;
19043;SDS011;9654;52.302;8.120;2023-02-21T07:33:46;91.33;;;35.37;;
19043;SDS011;9654;52.302;8.120;2023-02-21T07:36:13;85.73;;;32.53;;
19043;SDS011;9654;52.302;8.120;2023-02-21T07:38:40;85.70;;;33.67;;
19043;SDS011;9654;52.302;8.120;2023-02-21T07:41:08;90.87;;;33.67;;
19043;SDS011;9654;52.302;8.120;2023-02-21T07:43:34;89.67;;;33.97;;
19043;SDS011;9654;52.302;8.120;2023-02-21T07:46:03;86.47;;;31.13;;
19043;SDS011;9654;52.302;8.120;2023-02-21T07:48:34;92.00;;;34.97;;
19043;SDS011;9654;52.302;8.120;2023-02-21T07:51:00;86.67;;;34.17;;
19043;SDS011;9654;52.302;8.120;2023-02-21T07:53:27;90.10;;;32.90;;
19043;SDS011;9654;52.302;8.120;2023-02-21T07:55:54;90.20;;;32.23;;
19043;SDS011;9654;52.302;8.120;2023-02-21T07:58:22;91.43;;;33.87;;
19043;SDS011;9654;52.302;8.120;2023-02-21T08:00:49;87.93;;;33.53;;
19043;SDS011;9654;52.302;8.120;2023-02-21T08:03:16;95.17;;;34.20;;
19043;SDS011;9654;52.302;8.120;2023-02-21T08:05:43;81.83;;;30.73;;
19043;SDS011;9654;52.302;8.120;2023-02-21T08:08:10;90.70;;;32.90;;
19043;SDS011;9654;52.302;8.120;2023-02-21T08:10:37;86.70;;;31.60;;
19043;SDS011;9654;52.302;8.120;2023-02-21T08:13:04;82.60;;;31.47;;
19043;SDS011;9654;52.302;8.120;2023-02-21T08:15:32;89.17;;;31.13;;
19043;SDS011;9654;52.302;8.120;2023-02-21T08:17:59;87.93;;;32.30;;
19043;SDS011;9654;52.302;8.120;2023-02-21T08:20:26;76.47;;;29.33;;
19043;SDS011;9654;52.302;8.120;2023-02-21T08:22:53;74.43;;;28.40;;
19043;SDS011;9654;52.302;8.120;2023-02-21T08:25:19;76.80;;;29.93;;
19043;SDS011;9654;52.302;8.120;2023-02-21T08:27:46;76.43;;;28.77;;
19043;SDS011;9654;52.302;8.120;2023-02-21T08:30:17;72.27;;;28.57;;
19043;SDS011;9654;52.302;8.120;2023-02-21T08:32:46;69.80;;;28.73;;
19043;SDS011;9654;52.302;8.120;2023-02-21T08:35:13;73.63;;;27.87;;
19043;SDS011;9654;52.302;8.120;2023-02-21T08:37:42;67.67;;;27.50;;
19043;SDS011;9654;52.302;8.120;2023-02-21T08:40:10;71.90;;;27.87;;
19043;SDS011;9654;52.302;8.120;2023-02-21T08:42:38;67.67;;;26.67;;
19043;SDS011;9654;52.302;8.120;2023-02-21T08:45:05;62.07;;;26.83;;
19043;SDS011;9654;52.302;8.120;2023-02-21T08:47:34;61.37;;;25.13;;
19043;SDS011;9654;52.302;8.120;2023-02-21T08:50:02;55.60;;;23.97;;
19043;SDS011;9654;52.302;8.120;2023-02-21T08:52:30;58.00;;;23.87;;
19043;SDS011;9654;52.302;8.120;2023-02-21T08:54:56;63.03;;;24.77;;
19043;SDS011;9654;52.302;8.120;2023-02-21T08:57:23;53.53;;;24.07;;
19043;SDS011;9654;52.302;8.120;2023-02-21T08:59:50;55.03;;;23.73;;
19043;SDS011;9654;52.302;8.120;2023-02-21T09:02:18;53.80;;;22.50;;
19043;SDS011;9654;52.302;8.120;2023-02-21T09:04:46;55.50;;;23.60;;
19043;SDS011;9654;52.302;8.120;2023-02-21T09:07:14;56.20;;;23.23;;
19043;SDS011;9654;52.302;8.120;2023-02-21T11:27:00;78.70;;;26.83;;
19043;SDS011;9654;52.302;8.120;2023-02-21T11:29:30;82.47;;;26.60;;
19043;SDS011;9654;52.302;8.120;2023-02-21T11:32:00;74.83;;;27.73;;
19043;SDS011;9654;52.302;8.120;2023-02-21T11:34:38;79.40;;;28.97;;
19043;SDS011;9654;52.302;8.120;2023-02-21T11:37:12;68.07;;;25.53;;
19043;SDS011;9654;52.302;8.120;2023-02-21T11:39:48;77.40;;;27.43;;
19043;SDS011;9654;52.302;8.120;2023-02-21T11:42:32;81.13;;;29.67;;
19043;SDS011;9654;52.302;8.120;2023-02-21T11:45:19;81.13;;;27.70;;
19043;SDS011;9654;52.302;8.120;2023-02-21T11:48:05;78.73;;;28.23;;
19043;SDS011;9654;52.302;8.120;2023-02-21T11:50:43;86.73;;;28.30;;
19043;SDS011;9654;52.302;8.120;2023-02-21T11:53:33;78.53;;;28.60;;
19043;SDS011;9654;52.302;8.120;2023-02-21T11:56:06;80.40;;;27.30;;
19043;SDS011;9654;52.302;8.120;2023-02-21T11:58:42;81.33;;;28.77;;
19043;SDS011;9654;52.302;8.120;2023-02-21T12:01:26;85.13;;;30.07;;
19043;SDS011;9654;52.302;8.120;2023-02-21T12:04:02;84.27;;;29.23;;
19043;SDS011;9654;52.302;8.120;2023-02-21T12:06:50;80.37;;;29.10;;
19043;SDS011;9654;52.302;8.120;2023-02-21T12:09:31;85.33;;;29.63;;
19043;SDS011;9654;52.302;8.120;2023-02-21T12:12:24;78.40;;;28.00;;
19043;SDS011;9654;52.302;8.120;2023-02-21T12:15:10;78.37;;;26.40;;
19043;SDS011;9654;52.302;8.120;2023-02-21T12:20:57;81.00;;;27.37;;
19043;SDS011;9654;52.302;8.120;2023-02-21T12:23:44;83.07;;;27.03;;
19043;SDS011;9654;52.302;8.120;2023-02-21T12:26:41;73.07;;;24.97;;
19043;SDS011;9654;52.302;8.120;2023-02-21T12:29:18;76.70;;;26.40;;
19043;SDS011;9654;52.302;8.120;2023-02-21T12:32:07;84.23;;;26.63;;
19043;SDS011;9654;52.302;8.120;2023-02-21T12:34:58;74.97;;;27.37;;
19043;SDS011;9654;52.302;8.120;2023-02-21T12:37:56;83.33;;;27.70;;
19043;SDS011;9654;52.302;8.120;2023-02-21T12:40:36;81.80;;;27.27;;
19043;SDS011;9654;52.302;8.120;2023-02-21T12:43:16;73.87;;;26.70;;
19043;SDS011;9654;52.302;8.120;2023-02-21T12:45:58;75.63;;;26.53;;
19043;SDS011;9654;52.302;8.120;2023-02-21T12:48:37;79.63;;;27.10;;
19043;SDS011;9654;52.302;8.120;2023-02-21T12:51:13;71.13;;;25.40;;
19043;SDS011;9654;52.302;8.120;2023-02-21T12:53:52;71.43;;;25.50;;
19043;SDS011;9654;52.302;8.120;2023-02-21T12:56:25;69.70;;;25.20;;
19043;SDS011;9654;52.302;8.120;2023-02-21T12:59:02;76.83;;;26.07;;
19043;SDS011;9654;52.302;8.120;2023-02-21T13:01:42;75.27;;;25.37;;
19043;SDS011;9654;52.302;8.120;2023-02-21T13:04:21;67.17;;;24.13;;
19043;SDS011;9654;52.302;8.120;2023-02-21T13:07:05;69.30;;;23.70;;
19043;SDS011;9654;52.302;8.120;2023-02-21T13:09:44;66.80;;;23.83;;
19043;SDS011;9654;52.302;8.120;2023-02-21T13:12:27;62.17;;;24.20;;
19043;SDS011;9654;52.302;8.120;2023-02-21T13:15:12;61.90;;;22.53;;
19043;SDS011;9654;52.302;8.120;2023-02-21T13:17:49;58.93;;;21.73;;
19043;SDS011;9654;52.302;8.120;2023-02-21T13:20:26;64.73;;;22.37;;
19043;SDS011;9654;52.302;8.120;2023-02-21T13:26:28;62.03;;;22.30;;
19043;SDS011;9654;52.302;8.120;2023-02-21T13:29:09;60.17;;;21.50;;
19043;SDS011;9654;52.302;8.120;2023-02-21T13:31:43;50.67;;;20.90;;
19043;SDS011;9654;52.302;8.120;2023-02-21T13:34:16;51.50;;;20.33;;
19043;SDS011;9654;52.302;8.120;2023-02-21T13:36:49;58.33;;;21.23;;
19043;SDS011;9654;52.302;8.120;2023-02-21T13:39:17;56.77;;;22.03;;
19043;SDS011;9654;52.302;8.120;2023-02-21T13:42:03;59.87;;;21.63;;
19043;SDS011;9654;52.302;8.120;2023-02-21T13:44:34;50.50;;;19.33;;
19043;SDS011;9654;52.302;8.120;2023-02-21T13:47:13;51.40;;;20.77;;
19043;SDS011;9654;52.302;8.120;2023-02-21T13:49:48;84.03;;;35.20;;
19043;SDS011;9654;52.302;8.120;2023-02-21T13:58:40;47.93;;;20.13;;
19043;SDS011;9654;52.302;8.120;2023-02-21T14:10:19;57.43;;;24.03;;
19043;SDS011;9654;52.302;8.120;2023-02-21T14:12:56;60.87;;;25.87;;
19043;SDS011;9654;52.302;8.120;2023-02-21T14:15:41;65.93;;;30.27;;
19043;SDS011;9654;52.302;8.120;2023-02-21T14:18:13;69.87;;;31.03;;
19043;SDS011;9654;52.302;8.120;2023-02-21T14:20:51;126.13;;;58.87;;
19043;SDS011;9654;52.302;8.120;2023-02-21T14:23:21;50.60;;;18.80;;
19043;SDS011;9654;52.302;8.120;2023-02-21T14:25:55;52.30;;;19.83;;
19043;SDS011;9654;52.302;8.120;2023-02-21T14:31:14;48.17;;;17.23;;
19043;SDS011;9654;52.302;8.120;2023-02-21T14:34:12;51.07;;;18.63;;
19043;SDS011;9654;52.302;8.120;2023-02-21T14:36:40;53.63;;;19.43;;
19043;SDS011;9654;52.302;8.120;2023-02-21T14:39:11;52.27;;;19.90;;
19043;SDS011;9654;52.302;8.120;2023-02-21T14:41:51;53.83;;;19.30;;
19043;SDS011;9654;52.302;8.120;2023-02-21T14:44:29;55.23;;;19.17;;
19043;SDS011;9654;52.302;8.120;2023-02-21T14:47:12;44.83;;;18.90;;
19043;SDS011;9654;52.302;8.120;2023-02-21T14:50:12;45.27;;;17.70;;
19043;SDS011;9654;52.302;8.120;2023-02-21T14:53:05;40.17;;;15.40;;
19043;SDS011;9654;52.302;8.120;2023-02-21T14:56:02;39.07;;;15.90;;
19043;SDS011;9654;52.302;8.120;2023-02-21T15:02:00;32.43;;;12.47;;
19043;SDS011;9654;52.302;8.120;2023-02-21T15:04:40;36.30;;;13.03;;
19043;SDS011;9654;52.302;8.120;2023-02-21T15:07:14;29.53;;;12.00;;
19043;SDS011;9654;52.302;8.120;2023-02-21T15:12:30;33.57;;;13.23;;
19043;SDS011;9654;52.302;8.120;2023-02-21T15:15:02;29.87;;;12.53;;
19043;SDS011;9654;52.302;8.120;2023-02-21T15:17:31;31.20;;;13.23;;
19043;SDS011;9654;52.302;8.120;2023-02-21T15:20:02;39.07;;;13.47;;
19043;SDS011;9654;52.302;8.120;2023-02-21T15:22:31;29.10;;;12.20;;
19043;SDS011;9654;52.302;8.120;2023-02-21T15:27:51;33.33;;;13.03;;
19043;SDS011;9654;52.302;8.120;2023-02-21T15:30:23;28.47;;;12.63;;
19043;SDS011;9654;52.302;8.120;2023-02-21T15:32:54;31.97;;;13.60;;
19043;SDS011;9654;52.302;8.120;2023-02-21T15:35:24;28.73;;;11.87;;
19043;SDS011;9654;52.302;8.120;2023-02-21T15:37:55;32.23;;;13.23;;
19043;SDS011;9654;52.302;8.120;2023-02-21T15:40:24;30.13;;;12.90;;
19043;SDS011;9654;52.302;8.120;2023-02-21T15:42:52;28.63;;;12.10;;
19043;SDS011;9654;52.302;8.120;2023-02-21T15:45:21;32.07;;;13.53;;
19043;SDS011;9654;52.302;8.120;2023-02-21T15:47:51;29.00;;;13.13;;
19043;SDS011;9654;52.302;8.120;2023-02-21T15:50:24;34.93;;;14.30;;
19043;SDS011;9654;52.302;8.120;2023-02-21T15:52:55;31.43;;;13.80;;
19043;SDS011;9654;52.302;8.120;2023-02-21T15:55:36;30.27;;;13.53;;
19043;SDS011;9654;52.302;8.120;2023-02-21T15:58:10;28.27;;;12.93;;
19043;SDS011;9654;52.302;8.120;2023-02-21T16:00:44;29.37;;;12.97;;
19043;SDS011;9654;52.302;8.120;2023-02-21T16:03:33;31.83;;;13.87;;
19043;SDS011;9654;52.302;8.120;2023-02-21T16:06:12;30.43;;;13.47;;
19043;SDS011;9654;52.302;8.120;2023-02-21T16:08:50;31.97;;;14.30;;
19043;SDS011;9654;52.302;8.120;2023-02-21T16:11:26;33.37;;;14.57;;
19043;SDS011;9654;52.302;8.120;2023-02-21T16:14:04;33.90;;;14.70;;
19043;SDS011;9654;52.302;8.120;2023-02-21T16:16:32;30.67;;;14.07;;
19043;SDS011;9654;52.302;8.120;2023-02-21T16:19:01;33.53;;;15.00;;
19043;SDS011;9654;52.302;8.120;2023-02-21T16:21:28;31.57;;;16.77;;
19043;SDS011;9654;52.302;8.120;2023-02-21T16:23:55;135.87;;;61.93;;
19043;SDS011;9654;52.302;8.120;2023-02-21T16:26:23;62.23;;;29.07;;
19043;SDS011;9654;52.302;8.120;2023-02-21T16:28:52;41.43;;;22.03;;
19043;SDS011;9654;52.302;8.120;2023-02-21T16:31:26;37.33;;;16.60;;
19043;SDS011;9654;52.302;8.120;2023-02-21T16:33:55;35.37;;;17.40;;
19043;SDS011;9654;52.302;8.120;2023-02-21T16:36:24;32.60;;;15.87;;
19043;SDS011;9654;52.302;8.120;2023-02-21T16:38:53;34.00;;;15.80;;
19043;SDS011;9654;52.302;8.120;2023-02-21T16:41:20;28.47;;;13.37;;
19043;SDS011;9654;52.302;8.120;2023-02-21T16:43:47;29.60;;;14.10;;
19043;SDS011;9654;52.302;8.120;2023-02-21T16:46:14;29.93;;;14.07;;
19043;SDS011;9654;52.302;8.120;2023-02-21T16:48:42;33.53;;;14.33;;
19043;SDS011;9654;52.302;8.120;2023-02-21T16:51:10;32.33;;;13.60;;
19043;SDS011;9654;52.302;8.120;2023-02-21T16:53:40;32.77;;;13.87;;
19043;SDS011;9654;52.302;8.120;2023-02-21T16:56:07;31.03;;;13.57;;
19043;SDS011;9654;52.302;8.120;2023-02-21T16:58:35;29.50;;;13.60;;
19043;SDS011;9654;52.302;8.120;2023-02-21T17:01:05;34.60;;;15.13;;
19043;SDS011;9654;52.302;8.120;2023-02-21T17:03:33;31.37;;;13.40;;
19043;SDS011;9654;52.302;8.120;2023-02-21T17:06:00;30.63;;;13.60;;
19043;SDS011;9654;52.302;8.120;2023-02-21T17:08:27;30.50;;;14.87;;
19043;SDS011;9654;52.302;8.120;2023-02-21T17:10:55;32.87;;;14.10;;
19043;SDS011;9654;52.302;8.120;2023-02-21T17:13:23;30.57;;;13.77;;
19043;SDS011;9654;52.302;8.120;2023-02-21T17:15:50;28.47;;;13.03;;
19043;SDS011;9654;52.302;8.120;2023-02-21T17:18:17;29.57;;;12.80;;
19043;SDS011;9654;52.302;8.120;2023-02-21T17:20:43;30.53;;;12.43;;
19043;SDS011;9654;52.302;8.120;2023-02-21T17:23:10;25.80;;;12.50;;
19043;SDS011;9654;52.302;8.120;2023-02-21T17:25:37;29.97;;;13.23;;
19043;SDS011;9654;52.302;8.120;2023-02-21T17:28:05;31.70;;;13.07;;
19043;SDS011;9654;52.302;8.120;2023-02-21T17:30:32;26.20;;;12.67;;
19043;SDS011;9654;52.302;8.120;2023-02-21T17:32:59;28.47;;;13.00;;
19043;SDS011;9654;52.302;8.120;2023-02-21T17:35:25;35.53;;;16.97;;
19043;SDS011;9654;52.302;8.120;2023-02-21T17:37:52;31.50;;;13.87;;
19043;SDS011;9654;52.302;8.120;2023-02-21T17:40:19;32.23;;;14.03;;
19043;SDS011;9654;52.302;8.120;2023-02-21T17:42:47;31.50;;;13.90;;
19043;SDS011;9654;52.302;8.120;2023-02-21T17:45:16;35.50;;;14.60;;
19043;SDS011;9654;52.302;8.120;2023-02-21T17:47:44;36.70;;;16.13;;
19043;SDS011;9654;52.302;8.120;2023-02-21T17:50:11;31.70;;;15.37;;
19043;SDS011;9654;52.302;8.120;2023-02-21T17:52:38;31.47;;;15.87;;
19043;SDS011;9654;52.302;8.120;2023-02-21T17:55:05;34.67;;;15.37;;
19043;SDS011;9654;52.302;8.120;2023-02-21T17:57:33;31.60;;;16.07;;
19043;SDS011;9654;52.302;8.120;2023-02-21T18:00:02;40.97;;;19.47;;
19043;SDS011;9654;52.302;8.120;2023-02-21T18:02:34;42.30;;;22.73;;
19043;SDS011;9654;52.302;8.120;2023-02-21T18:05:01;53.43;;;25.03;;
19043;SDS011;9654;52.302;8.120;2023-02-21T18:07:28;58.77;;;32.57;;
19043;SDS011;9654;52.302;8.120;2023-02-21T18:09:56;50.97;;;27.80;;
19043;SDS011;9654;52.302;8.120;2023-02-21T18:12:24;46.83;;;23.70;;
19043;SDS011;9654;52.302;8.120;2023-02-21T18:14:51;64.30;;;32.07;;
19043;SDS011;9654;52.302;8.120;2023-02-21T18:17:17;80.23;;;43.50;;
19043;SDS011;9654;52.302;8.120;2023-02-21T18:19:45;172.43;;;95.00;;
19043;SDS011;9654;52.302;8.120;2023-02-21T18:22:12;56.00;;;28.87;;
19043;SDS011;9654;52.302;8.120;2023-02-21T18:24:39;110.93;;;54.10;;
19043;SDS011;9654;52.302;8.120;2023-02-21T18:27:06;108.30;;;53.53;;
19043;SDS011;9654;52.302;8.120;2023-02-21T18:29:33;80.03;;;40.73;;
19043;SDS011;9654;52.302;8.120;2023-02-21T18:32:00;62.40;;;31.57;;
19043;SDS011;9654;52.302;8.120;2023-02-21T18:34:27;101.97;;;60.57;;
19043;SDS011;9654;52.302;8.120;2023-02-21T18:36:55;81.00;;;39.87;;
19043;SDS011;9654;52.302;8.120;2023-02-21T18:39:22;59.80;;;29.57;;
19043;SDS011;9654;52.302;8.120;2023-02-21T18:41:49;60.87;;;33.33;;
19043;SDS011;9654;52.302;8.120;2023-02-21T18:44:16;49.63;;;23.80;;
19043;SDS011;9654;52.302;8.120;2023-02-21T18:46:47;47.67;;;24.20;;
19043;SDS011;9654;52.302;8.120;2023-02-21T18:49:17;51.33;;;24.07;;
19043;SDS011;9654;52.302;8.120;2023-02-21T18:51:45;42.50;;;17.23;;
19043;SDS011;9654;52.302;8.120;2023-02-21T18:54:13;36.07;;;17.67;;
19043;SDS011;9654;52.302;8.120;2023-02-21T18:56:43;41.83;;;18.20;;
19043;SDS011;9654;52.302;8.120;2023-02-21T18:59:12;39.30;;;19.63;;
19043;SDS011;9654;52.302;8.120;2023-02-21T19:01:39;59.90;;;30.07;;
19043;SDS011;9654;52.302;8.120;2023-02-21T19:04:06;66.20;;;33.97;;
19043;SDS011;9654;52.302;8.120;2023-02-21T19:06:33;61.63;;;27.60;;
19043;SDS011;9654;52.302;8.120;2023-02-21T19:09:00;67.27;;;31.67;;
19043;SDS011;9654;52.302;8.120;2023-02-21T19:11:29;61.83;;;28.33;;
19043;SDS011;9654;52.302;8.120;2023-02-21T19:13:55;50.17;;;24.10;;
19043;SDS011;9654;52.302;8.120;2023-02-21T19:16:22;47.03;;;23.80;;
19043;SDS011;9654;52.302;8.120;2023-02-21T19:18:52;49.17;;;23.43;;
19043;SDS011;9654;52.302;8.120;2023-02-21T19:21:19;46.63;;;24.00;;
19043;SDS011;9654;52.302;8.120;2023-02-21T19:23:46;41.40;;;19.47;;
19043;SDS011;9654;52.302;8.120;2023-02-21T19:26:13;42.90;;;18.37;;
19043;SDS011;9654;52.302;8.120;2023-02-21T19:28:41;37.17;;;18.07;;
19043;SDS011;9654;52.302;8.120;2023-02-21T19:31:09;39.37;;;18.70;;
19043;SDS011;9654;52.302;8.120;2023-02-21T19:33:37;47.13;;;25.83;;
19043;SDS011;9654;52.302;8.120;2023-02-21T19:36:05;44.17;;;23.43;;
19043;SDS011;9654;52.302;8.120;2023-02-21T19:38:33;45.20;;;22.00;;
19043;SDS011;9654;52.302;8.120;2023-02-21T19:41:02;44.87;;;22.67;;
19043;SDS011;9654;52.302;8.120;2023-02-21T19:43:30;43.93;;;24.27;;
19043;SDS011;9654;52.302;8.120;2023-02-21T19:45:58;45.93;;;23.43;;
19043;SDS011;9654;52.302;8.120;2023-02-21T19:48:25;44.40;;;22.03;;
19043;SDS011;9654;52.302;8.120;2023-02-21T19:50:52;39.43;;;19.63;;
19043;SDS011;9654;52.302;8.120;2023-02-21T19:53:19;47.70;;;21.10;;
19043;SDS011;9654;52.302;8.120;2023-02-21T19:55:46;42.20;;;21.03;;
19043;SDS011;9654;52.302;8.120;2023-02-21T19:58:13;36.97;;;18.23;;
19043;SDS011;9654;52.302;8.120;2023-02-21T20:00:41;36.03;;;17.27;;
19043;SDS011;9654;52.302;8.120;2023-02-21T20:03:09;42.07;;;18.80;;
19043;SDS011;9654;52.302;8.120;2023-02-21T20:05:36;40.93;;;18.83;;
19043;SDS011;9654;52.302;8.120;2023-02-21T20:08:03;41.73;;;18.93;;
19043;SDS011;9654;52.302;8.120;2023-02-21T20:10:30;42.77;;;19.40;;
19043;SDS011;9654;52.302;8.120;2023-02-21T20:12:57;38.50;;;16.40;;
19043;SDS011;9654;52.302;8.120;2023-02-21T20:15:24;36.63;;;17.03;;
19043;SDS011;9654;52.302;8.120;2023-02-21T20:17:51;39.83;;;18.27;;
19043;SDS011;9654;52.302;8.120;2023-02-21T20:20:20;47.13;;;21.23;;
19043;SDS011;9654;52.302;8.120;2023-02-21T20:22:47;52.97;;;23.47;;
19043;SDS011;9654;52.302;8.120;2023-02-21T20:25:13;53.50;;;23.97;;
19043;SDS011;9654;52.302;8.120;2023-02-21T20:27:40;48.33;;;22.93;;
19043;SDS011;9654;52.302;8.120;2023-02-21T20:30:07;44.63;;;21.53;;
19043;SDS011;9654;52.302;8.120;2023-02-21T20:32:35;42.27;;;19.87;;
19043;SDS011;9654;52.302;8.120;2023-02-21T20:35:02;41.80;;;18.10;;
19043;SDS011;9654;52.302;8.120;2023-02-21T20:37:30;40.73;;;18.77;;
19043;SDS011;9654;52.302;8.120;2023-02-21T20:39:57;38.67;;;19.27;;
19043;SDS011;9654;52.302;8.120;2023-02-21T20:42:25;39.83;;;18.23;;
19043;SDS011;9654;52.302;8.120;2023-02-21T20:44:53;36.57;;;17.20;;
19043;SDS011;9654;52.302;8.120;2023-02-21T20:47:20;39.37;;;16.77;;
19043;SDS011;9654;52.302;8.120;2023-02-21T20:49:48;41.23;;;18.23;;